createdAt,value
2018-07-15T00:01:52.810Z,57.90
2018-07-15T00:04:20.398Z,58.10
2018-07-15T00:06:48.013Z,58.20
2018-07-15T00:09:15.670Z,58.10
2018-07-15T00:11:43.288Z,58.60
2018-07-15T00:14:10.906Z,57.90
2018-07-15T00:16:38.562Z,58.20
2018-07-15T00:19:06.219Z,58.40
2018-07-15T00:21:33.820Z,58.70
2018-07-15T00:24:01.443Z,59.10
2018-07-15T00:26:29.058Z,59.60
2018-07-15T00:28:56.732Z,59.70
2018-07-15T00:31:24.394Z,59.70
2018-07-15T00:33:52.030Z,59.90
2018-07-15T00:36:19.653Z,59.60
2018-07-15T00:38:47.233Z,59.60
2018-07-15T00:41:14.821Z,59.70
2018-07-15T00:43:42.462Z,59.80
2018-07-15T00:46:10.088Z,59.80
2018-07-15T00:48:37.670Z,60.10
2018-07-15T00:53:32.837Z,60.80
2018-07-15T00:56:00.433Z,61.10
2018-07-15T00:58:28.082Z,61.20
2018-07-15T01:01:01.129Z,61.20
2018-07-15T01:03:28.910Z,61.20
2018-07-15T01:05:56.563Z,61.50
2018-07-15T01:08:24.166Z,61.80
2018-07-15T01:10:51.808Z,62.10
2018-07-15T01:13:19.457Z,62.10
2018-07-15T01:15:47.020Z,62.30
2018-07-15T01:18:14.691Z,62.20
2018-07-15T01:20:42.350Z,62.10
2018-07-15T01:23:09.938Z,62.30
2018-07-15T01:25:37.582Z,62.60
2018-07-15T01:28:05.213Z,62.80
2018-07-15T01:30:32.844Z,63.00
2018-07-15T01:33:00.444Z,63.10
2018-07-15T01:35:28.250Z,63.20
2018-07-15T01:37:55.881Z,63.10
2018-07-15T01:40:23.485Z,62.90
2018-07-15T01:42:51.114Z,62.80
2018-07-15T01:45:18.685Z,62.90
2018-07-15T01:47:46.301Z,62.90
2018-07-15T01:50:13.892Z,63.00
2018-07-15T01:52:41.504Z,63.00
2018-07-15T01:55:09.150Z,63.30
2018-07-15T01:57:36.738Z,63.50
2018-07-15T02:00:04.844Z,63.30
2018-07-15T02:02:32.578Z,63.30
2018-07-15T02:05:00.171Z,63.20
2018-07-15T02:07:27.770Z,63.60
2018-07-15T02:09:55.381Z,63.80
2018-07-15T02:12:22.955Z,63.90
2018-07-15T02:14:50.581Z,63.90
2018-07-15T02:17:18.231Z,64.20
2018-07-15T02:19:45.845Z,64.20
2018-07-15T02:22:13.405Z,64.20
2018-07-15T02:24:40.990Z,64.60
2018-07-15T02:27:08.602Z,64.80
2018-07-15T02:29:36.245Z,64.70
2018-07-15T02:32:03.832Z,64.40
2018-07-15T02:34:31.430Z,64.50
2018-07-15T02:36:59.345Z,64.90
2018-07-15T02:39:26.920Z,65.20
2018-07-15T02:41:54.533Z,65.60
2018-07-15T02:44:22.169Z,66.70
2018-07-15T02:46:49.772Z,66.30
2018-07-15T02:49:17.421Z,66.90
2018-07-15T02:51:45.039Z,67.00
2018-07-15T02:54:12.660Z,67.30
2018-07-15T02:56:40.269Z,66.50
2018-07-15T02:59:07.883Z,66.70
2018-07-15T03:01:35.654Z,66.60
2018-07-15T03:04:03.230Z,67.00
2018-07-15T03:06:30.847Z,66.90
2018-07-15T03:08:58.417Z,66.80
2018-07-15T03:11:26.033Z,66.70
2018-07-15T03:13:53.635Z,66.60
2018-07-15T03:16:21.245Z,66.90
2018-07-15T03:18:48.854Z,67.00
2018-07-15T03:21:16.489Z,67.40
2018-07-15T03:26:11.573Z,67.50
2018-07-15T03:28:39.201Z,67.30
2018-07-15T03:31:06.805Z,67.30
2018-07-15T03:33:34.389Z,66.70
2018-07-15T03:36:02.008Z,67.10
2018-07-15T03:38:29.585Z,67.60
2018-07-15T03:40:57.231Z,66.80
2018-07-15T03:43:24.985Z,66.40
2018-07-15T03:45:52.557Z,66.30
2018-07-15T03:48:20.165Z,66.60
2018-07-15T03:50:47.768Z,67.20
2018-07-15T03:53:15.363Z,67.30
2018-07-15T03:55:42.941Z,67.70
2018-07-15T03:58:10.546Z,67.90
2018-07-15T04:00:38.228Z,68.10
2018-07-15T04:03:06.001Z,68.10
2018-07-15T04:05:33.637Z,68.30
2018-07-15T04:08:01.219Z,68.70
2018-07-15T04:10:28.832Z,69.10
2018-07-15T04:12:56.429Z,69.60
2018-07-15T04:15:24.003Z,69.30
2018-07-15T04:18:06.616Z,68.90
2018-07-15T04:20:35.518Z,69.40
2018-07-15T04:23:04.117Z,69.10
2018-07-15T04:25:32.797Z,68.90
2018-07-15T04:28:00.532Z,68.50
2018-07-15T04:30:28.181Z,68.00
2018-07-15T04:32:55.764Z,67.60
2018-07-15T04:35:23.405Z,67.70
2018-07-15T04:37:51.313Z,66.80
2018-07-15T04:40:19.557Z,67.00
2018-07-15T04:42:47.486Z,67.20
2018-07-15T04:45:15.145Z,66.70
2018-07-15T04:47:42.756Z,66.40
2018-07-15T04:50:10.304Z,66.60
2018-07-15T04:52:37.969Z,66.60
2018-07-15T04:55:05.719Z,66.60
2018-07-15T04:57:33.374Z,66.30
2018-07-15T05:00:00.997Z,66.40
2018-07-15T05:02:28.574Z,65.80
2018-07-15T05:04:56.139Z,65.60
2018-07-15T05:07:23.739Z,65.60
2018-07-15T05:09:51.383Z,65.40
2018-07-15T05:12:19.007Z,65.10
2018-07-15T05:14:46.617Z,64.90
2018-07-15T05:17:14.244Z,64.40
2018-07-15T05:19:41.859Z,64.30
2018-07-15T05:22:09.474Z,63.70
2018-07-15T05:24:37.081Z,63.30
2018-07-15T05:27:04.750Z,62.70
2018-07-15T05:29:32.363Z,61.50
2018-07-15T05:31:59.998Z,59.40
2018-07-15T05:34:27.617Z,56.20
2018-07-15T05:36:55.221Z,52.00
2018-07-15T05:41:50.352Z,45.70
2018-07-15T05:44:18.020Z,44.10
2018-07-15T05:49:13.172Z,41.80
2018-07-15T05:51:40.809Z,39.00
2018-07-15T05:54:08.430Z,37.50
2018-07-15T05:56:36.008Z,37.10
2018-07-15T05:59:03.687Z,36.60
2018-07-15T06:01:31.381Z,36.90
2018-07-15T06:03:58.965Z,36.30
2018-07-15T06:06:26.621Z,35.50
2018-07-15T06:08:54.234Z,34.70
2018-07-15T06:11:21.907Z,34.10
2018-07-15T06:13:49.565Z,34.40
2018-07-15T06:16:17.226Z,33.90
2018-07-15T06:18:44.789Z,34.80
2018-07-15T06:21:12.582Z,34.80
2018-07-15T06:23:40.271Z,33.60
2018-07-15T06:26:07.954Z,32.50
2018-07-15T06:28:35.620Z,32.20
2018-07-15T06:31:03.334Z,31.90
2018-07-15T06:33:30.928Z,31.60
2018-07-15T06:35:58.579Z,31.40
2018-07-15T06:38:26.189Z,31.40
2018-07-15T06:40:53.775Z,30.30
2018-07-15T06:43:21.398Z,30.00
2018-07-15T06:45:49.047Z,30.40
2018-07-15T06:48:16.647Z,30.30
2018-07-15T06:50:44.298Z,29.50
2018-07-15T06:53:11.887Z,29.40
2018-07-15T06:55:39.616Z,30.00
2018-07-15T06:58:07.385Z,29.40
2018-07-15T07:00:35.054Z,29.40
2018-07-15T07:03:02.645Z,29.10
2018-07-15T07:05:30.385Z,29.00
2018-07-15T07:07:58.152Z,28.10
2018-07-15T07:10:25.742Z,28.30
2018-07-15T07:12:53.338Z,27.90
2018-07-15T07:15:21.010Z,28.20
2018-07-15T07:17:48.645Z,28.90
2018-07-15T07:20:16.217Z,28.80
2018-07-15T07:22:43.841Z,28.40
2018-07-15T07:25:11.472Z,28.60
2018-07-15T07:27:39.041Z,27.80
2018-07-15T07:30:06.643Z,27.80
2018-07-15T07:32:34.265Z,28.20
2018-07-15T07:35:01.943Z,28.00
2018-07-15T07:37:29.575Z,27.40
2018-07-15T07:39:57.161Z,27.40
2018-07-15T07:42:24.932Z,27.00
2018-07-15T07:44:52.731Z,26.30
2018-07-15T07:47:20.360Z,25.70
2018-07-15T07:49:48.304Z,25.40
2018-07-15T07:52:16.222Z,24.80
2018-07-15T07:54:43.930Z,25.90
2018-07-15T07:57:11.533Z,25.60
2018-07-15T07:59:39.156Z,25.90
2018-07-15T08:02:06.859Z,25.00
2018-07-15T08:04:34.646Z,24.60
2018-07-15T08:07:02.312Z,24.50
2018-07-15T08:09:30.533Z,24.30
2018-07-15T08:11:58.292Z,24.30
2018-07-15T08:14:26.259Z,24.70
2018-07-15T08:16:54.000Z,24.60
2018-07-15T08:19:21.733Z,24.30
2018-07-15T08:21:49.373Z,24.10
2018-07-15T08:24:17.235Z,24.10
2018-07-15T08:26:44.904Z,24.10
2018-07-15T08:29:12.580Z,23.70
2018-07-15T08:31:40.168Z,23.70
2018-07-15T08:34:07.752Z,23.20
2018-07-15T08:36:35.383Z,23.10
2018-07-15T08:39:03.567Z,23.20
2018-07-15T08:41:31.192Z,23.40
2018-07-15T08:43:58.813Z,23.50
2018-07-15T08:46:26.430Z,23.40
2018-07-15T08:48:54.050Z,23.20
2018-07-15T08:51:21.751Z,22.60
2018-07-15T08:53:49.439Z,23.00
2018-07-15T08:56:17.094Z,22.70
2018-07-15T09:01:12.244Z,22.20
2018-07-15T09:03:39.888Z,21.50
2018-07-15T09:06:07.544Z,21.50
2018-07-15T09:08:35.135Z,22.10
2018-07-15T09:11:02.765Z,23.50
2018-07-15T09:13:30.477Z,23.40
2018-07-15T09:15:58.073Z,23.10
2018-07-15T09:18:25.728Z,21.90
2018-07-15T09:20:53.304Z,21.60
2018-07-15T09:23:21.169Z,20.60
2018-07-15T09:25:48.981Z,20.40
2018-07-15T09:28:16.593Z,19.60
2018-07-15T09:30:44.217Z,19.40
2018-07-15T09:33:11.807Z,19.20
2018-07-15T09:35:39.498Z,18.20
2018-07-15T09:38:07.058Z,18.80
2018-07-15T09:40:34.702Z,19.30
2018-07-15T09:43:02.400Z,19.90
2018-07-15T09:45:30.058Z,19.60
2018-07-15T09:47:57.645Z,19.40
2018-07-15T09:50:25.308Z,19.70
2018-07-15T09:52:53.569Z,20.10
2018-07-15T09:55:21.364Z,19.90
2018-07-15T09:57:49.045Z,19.30
2018-07-15T10:00:22.437Z,19.50
2018-07-15T10:02:50.033Z,19.70
2018-07-15T10:05:17.789Z,19.90
2018-07-15T10:07:45.506Z,19.70
2018-07-15T10:10:13.193Z,19.30
2018-07-15T10:12:40.769Z,19.20
2018-07-15T10:15:08.409Z,19.60
2018-07-15T10:17:35.967Z,18.90
2018-07-15T10:20:03.678Z,18.90
2018-07-15T10:22:31.334Z,18.40
2018-07-15T10:24:59.289Z,18.50
2018-07-15T10:27:26.905Z,18.80
2018-07-15T10:29:54.574Z,18.30
2018-07-15T10:32:22.189Z,18.30
2018-07-15T10:34:49.789Z,17.50
2018-07-15T10:37:17.417Z,18.90
2018-07-15T10:39:45.080Z,19.10
2018-07-15T10:42:12.797Z,19.20
2018-07-15T10:44:40.422Z,19.80
2018-07-15T10:47:08.011Z,20.50
2018-07-15T10:49:35.641Z,20.50
2018-07-15T10:52:03.284Z,20.50
2018-07-15T10:54:30.945Z,20.60
2018-07-15T10:59:26.429Z,21.00
2018-07-15T11:01:54.065Z,21.30
2018-07-15T11:04:21.678Z,20.50
2018-07-15T11:06:49.405Z,20.60
2018-07-15T11:09:17.034Z,20.20
2018-07-15T11:11:44.645Z,19.70
2018-07-15T11:14:12.265Z,20.10
2018-07-15T11:16:39.862Z,20.80
2018-07-15T11:19:07.497Z,22.30
2018-07-15T11:21:35.115Z,22.90
2018-07-15T11:24:02.777Z,24.30
2018-07-15T11:26:30.437Z,24.70
2018-07-15T11:28:57.998Z,25.20
2018-07-15T11:31:25.664Z,25.30
2018-07-15T11:33:53.224Z,25.50
2018-07-15T11:36:20.990Z,25.20
2018-07-15T11:38:48.594Z,25.60
2018-07-15T11:41:16.180Z,25.90
2018-07-15T11:43:43.803Z,26.20
2018-07-15T11:46:11.490Z,25.90
2018-07-15T11:48:39.104Z,26.90
2018-07-15T11:51:06.765Z,27.80
2018-07-15T11:53:34.409Z,27.30
2018-07-15T11:56:02.429Z,27.00
2018-07-15T11:58:30.036Z,27.50
2018-07-15T12:00:57.694Z,27.40
2018-07-15T12:03:25.334Z,26.60
2018-07-15T12:05:52.941Z,26.80
2018-07-15T12:08:20.549Z,27.00
2018-07-15T12:10:48.282Z,26.50
2018-07-15T12:13:15.926Z,26.80
2018-07-15T12:15:43.538Z,27.20
2018-07-15T12:18:11.169Z,27.30
2018-07-15T12:20:38.859Z,27.20
2018-07-15T12:23:06.398Z,26.80
2018-07-15T12:25:34.052Z,26.80
2018-07-15T12:28:01.655Z,26.50
2018-07-15T12:30:29.309Z,26.60
2018-07-15T12:32:57.041Z,26.80
2018-07-15T12:35:24.658Z,26.70
2018-07-15T12:37:52.429Z,26.40
2018-07-15T12:40:20.019Z,26.70
2018-07-15T12:42:47.950Z,26.80
2018-07-15T12:45:15.542Z,26.70
2018-07-15T12:47:43.145Z,26.40
2018-07-15T12:50:10.801Z,26.80
2018-07-15T12:52:38.417Z,27.00
2018-07-15T12:55:06.069Z,27.00
2018-07-15T12:57:33.727Z,26.50
2018-07-15T13:00:01.341Z,26.50
2018-07-15T13:02:28.986Z,26.60
2018-07-15T13:04:56.788Z,25.50
2018-07-15T13:07:24.410Z,25.50
2018-07-15T13:09:52.076Z,25.70
2018-07-15T13:12:19.652Z,24.50
2018-07-15T13:14:47.300Z,24.80
2018-07-15T13:17:14.930Z,26.40
2018-07-15T13:19:42.519Z,25.90
2018-07-15T13:22:10.257Z,25.50
2018-07-15T13:24:38.275Z,25.40
2018-07-15T13:27:05.926Z,25.40
2018-07-15T13:29:33.574Z,24.80
2018-07-15T13:32:01.353Z,24.70
2018-07-15T13:34:29.013Z,25.60
2018-07-15T13:36:56.625Z,26.20
2018-07-15T13:39:24.278Z,26.10
2018-07-15T13:41:51.950Z,25.50
2018-07-15T13:44:19.550Z,26.10
2018-07-15T13:46:47.461Z,26.10
2018-07-15T13:49:15.354Z,25.90
2018-07-15T13:51:42.956Z,26.20
2018-07-15T13:54:10.630Z,26.00
2018-07-15T13:56:38.263Z,26.00
2018-07-15T13:59:05.915Z,25.20
2018-07-15T14:01:34.425Z,25.10
2018-07-15T14:04:02.066Z,25.40
2018-07-15T14:06:29.625Z,25.70
2018-07-15T14:08:57.251Z,25.40
2018-07-15T14:11:24.837Z,25.20
2018-07-15T14:13:52.539Z,25.70
2018-07-15T14:16:20.105Z,25.30
2018-07-15T14:18:47.788Z,25.20
2018-07-15T14:21:15.452Z,25.30
2018-07-15T14:23:43.035Z,25.30
2018-07-15T14:26:10.965Z,25.00
2018-07-15T14:28:38.597Z,24.90
2018-07-15T14:31:06.657Z,25.10
2018-07-15T14:33:34.314Z,25.00
2018-07-15T14:36:02.140Z,24.70
2018-07-15T14:38:29.751Z,24.30
2018-07-15T14:40:57.389Z,23.90
2018-07-15T14:43:25.042Z,24.60
2018-07-15T14:45:52.705Z,24.50
2018-07-15T14:48:20.329Z,24.50
2018-07-15T14:50:47.957Z,24.40
2018-07-15T14:53:15.557Z,24.10
2018-07-15T14:55:43.175Z,23.90
2018-07-15T14:58:11.251Z,23.90
2018-07-15T15:00:38.925Z,24.00
2018-07-15T15:03:06.981Z,24.40
2018-07-15T15:05:34.592Z,24.20
2018-07-15T15:08:02.477Z,23.80
2018-07-15T15:10:30.617Z,25.30
2018-07-15T15:12:58.293Z,26.10
2018-07-15T15:15:25.917Z,26.00
2018-07-15T15:17:53.792Z,25.80
2018-07-15T15:20:21.372Z,25.70
2018-07-15T15:22:48.979Z,25.80
2018-07-15T15:25:16.587Z,25.70
2018-07-15T15:27:44.203Z,26.00
2018-07-15T15:30:11.848Z,25.60
2018-07-15T15:32:39.438Z,25.70
2018-07-15T15:35:07.100Z,25.50
2018-07-15T15:37:34.781Z,25.10
2018-07-15T15:40:02.602Z,25.10
2018-07-15T15:42:30.190Z,25.40
2018-07-15T15:44:57.852Z,25.60
2018-07-15T15:49:52.963Z,25.10
2018-07-15T15:52:20.616Z,25.40
2018-07-15T15:54:48.217Z,25.60
2018-07-15T15:57:15.792Z,25.60
2018-07-15T15:59:43.403Z,25.60
2018-07-15T16:02:11.073Z,25.30
2018-07-15T16:04:38.673Z,25.40
2018-07-15T16:07:06.327Z,25.20
2018-07-15T16:09:33.978Z,25.20
2018-07-15T16:12:01.537Z,25.20
2018-07-15T16:14:29.201Z,25.40
2018-07-15T16:16:56.862Z,25.70
2018-07-15T16:19:24.507Z,25.40
2018-07-15T16:21:52.253Z,25.80
2018-07-15T16:24:19.834Z,25.80
2018-07-15T16:26:47.478Z,25.40
2018-07-15T16:29:15.048Z,25.00
2018-07-15T16:31:42.821Z,25.00
2018-07-15T16:34:10.561Z,25.10
2018-07-15T16:36:38.125Z,25.40
2018-07-15T16:39:06.616Z,25.30
2018-07-15T16:41:34.285Z,25.60
2018-07-15T16:44:01.897Z,25.60
2018-07-15T16:46:29.493Z,25.60
2018-07-15T16:48:57.115Z,25.90
2018-07-15T16:51:24.738Z,25.60
2018-07-15T16:53:52.313Z,25.90
2018-07-15T16:56:19.953Z,26.20
2018-07-15T16:58:47.605Z,26.40
2018-07-15T17:01:15.242Z,26.20
2018-07-15T17:03:42.931Z,26.40
2018-07-15T17:06:10.761Z,26.70
2018-07-15T17:08:38.357Z,26.80
2018-07-15T17:11:06.596Z,27.00
2018-07-15T17:13:34.260Z,27.10
2018-07-15T17:16:01.877Z,26.50
2018-07-15T17:18:29.517Z,26.50
2018-07-15T17:20:57.095Z,26.80
2018-07-15T17:23:24.676Z,26.90
2018-07-15T17:25:52.392Z,26.70
2018-07-15T17:28:19.977Z,26.60
2018-07-15T17:30:47.596Z,26.50
2018-07-15T17:33:15.276Z,26.70
2018-07-15T17:35:42.885Z,26.70
2018-07-15T17:38:10.555Z,26.50
2018-07-15T17:40:38.258Z,26.50
2018-07-15T17:43:06.076Z,26.40
2018-07-15T17:45:33.689Z,26.50
2018-07-15T17:48:01.302Z,26.50
2018-07-15T17:50:29.193Z,26.30
2018-07-15T17:52:56.823Z,26.40
2018-07-15T17:55:24.396Z,26.90
2018-07-15T17:57:52.003Z,27.20
2018-07-15T18:00:19.745Z,27.30
2018-07-15T18:02:47.773Z,27.40
2018-07-15T18:05:15.379Z,27.50
2018-07-15T18:07:42.972Z,27.20
2018-07-15T18:10:10.552Z,27.40
2018-07-15T18:12:38.181Z,27.60
2018-07-15T18:15:05.805Z,27.50
2018-07-15T18:17:33.430Z,27.30
2018-07-15T18:20:01.068Z,27.20
2018-07-15T18:22:28.688Z,27.50
2018-07-15T18:24:56.330Z,27.60
2018-07-15T18:27:23.974Z,28.00
2018-07-15T18:29:51.597Z,28.30
2018-07-15T18:32:19.271Z,28.60
2018-07-15T18:34:46.933Z,28.90
2018-07-15T18:37:14.557Z,29.10
2018-07-15T18:39:42.145Z,29.30
2018-07-15T18:42:09.768Z,29.40
2018-07-15T18:44:37.378Z,29.70
2018-07-15T18:47:05.086Z,29.80
2018-07-15T18:49:32.648Z,30.00
2018-07-15T18:52:00.385Z,29.90
2018-07-15T18:54:28.022Z,30.60
2018-07-15T18:56:55.841Z,31.00
2018-07-15T18:59:23.449Z,31.20
2018-07-15T19:01:51.113Z,31.50
2018-07-15T19:04:18.696Z,31.70
2018-07-15T19:06:46.341Z,31.60
2018-07-15T19:09:14.022Z,31.60
2018-07-15T19:11:41.624Z,31.70
2018-07-15T19:14:09.227Z,31.70
2018-07-15T19:16:36.813Z,32.30
2018-07-15T19:19:04.617Z,32.20
2018-07-15T19:21:32.279Z,32.40
2018-07-15T19:23:59.880Z,32.30
2018-07-15T19:26:27.470Z,32.50
2018-07-15T19:28:55.115Z,32.80
2018-07-15T19:31:22.757Z,33.10
2018-07-15T19:33:50.677Z,33.50
2018-07-15T19:36:18.245Z,33.50
2018-07-15T19:38:45.885Z,33.70
2018-07-15T19:41:13.612Z,33.60
2018-07-15T19:43:41.342Z,34.20
2018-07-15T19:46:08.965Z,34.80
2018-07-15T19:48:36.558Z,34.20
2018-07-15T19:51:04.205Z,34.40
2018-07-15T19:53:31.808Z,34.10
2018-07-15T19:55:59.447Z,34.40
2018-07-15T19:58:27.026Z,34.10
2018-07-15T20:00:54.739Z,34.80
2018-07-15T20:03:22.262Z,34.30
2018-07-15T20:05:49.861Z,34.40
2018-07-15T20:08:17.572Z,34.30
2018-07-15T20:10:45.148Z,34.70
2018-07-15T20:13:12.807Z,35.00
2018-07-15T20:15:40.414Z,35.20
2018-07-15T20:18:08.035Z,35.10
2018-07-15T20:20:35.686Z,35.40
2018-07-15T20:23:03.349Z,35.50
2018-07-15T20:25:30.946Z,35.60
2018-07-15T20:27:58.740Z,36.00
2018-07-15T20:30:26.365Z,35.90
2018-07-15T20:32:53.945Z,35.80
2018-07-15T20:35:21.639Z,35.60
2018-07-15T20:37:49.243Z,35.90
2018-07-15T20:40:16.844Z,36.10
2018-07-15T20:42:44.504Z,36.00
2018-07-15T20:45:12.168Z,36.20
2018-07-15T20:47:39.792Z,36.10
2018-07-15T20:50:07.720Z,36.30
2018-07-15T20:52:35.318Z,36.50
2018-07-15T20:55:02.917Z,36.80
2018-07-15T20:57:30.508Z,36.70
2018-07-15T20:59:58.085Z,38.70
2018-07-15T21:02:26.101Z,38.70
2018-07-15T21:04:53.774Z,37.70
2018-07-15T21:07:21.411Z,37.20
2018-07-15T21:09:49.011Z,36.30
2018-07-15T21:12:16.631Z,36.60
2018-07-15T21:14:44.457Z,36.70
2018-07-15T21:17:12.111Z,37.10
2018-07-15T21:19:39.725Z,37.00
2018-07-15T21:22:07.617Z,37.10
2018-07-15T21:24:35.234Z,37.50
2018-07-15T21:27:02.846Z,37.20
2018-07-15T21:29:30.824Z,38.20
2018-07-15T21:31:58.440Z,37.70
2018-07-15T21:34:26.031Z,37.50
2018-07-15T21:36:53.699Z,37.70
2018-07-15T21:39:21.310Z,38.20
2018-07-15T21:44:16.689Z,38.60
2018-07-15T21:46:44.220Z,38.30
2018-07-15T21:49:11.772Z,39.00
2018-07-15T21:51:39.385Z,39.50
2018-07-15T21:54:07.104Z,38.90
2018-07-15T21:56:34.689Z,39.30
2018-07-15T21:59:02.265Z,39.20
2018-07-15T22:01:42.345Z,39.20
2018-07-15T22:04:10.525Z,39.40
2018-07-15T22:06:49.481Z,39.30
2018-07-15T22:09:28.932Z,39.50
2018-07-15T22:11:57.832Z,39.80
2018-07-15T22:14:25.420Z,40.00
2018-07-15T22:16:53.002Z,40.50
2018-07-15T22:19:20.768Z,40.20
2018-07-15T22:21:48.391Z,40.60
2018-07-15T22:24:16.017Z,40.70
2018-07-15T22:26:43.636Z,40.80
2018-07-15T22:29:11.178Z,41.30
2018-07-15T22:31:39.120Z,41.10
2018-07-15T22:34:06.984Z,41.60
2018-07-15T22:36:35.065Z,41.60
2018-07-15T22:39:04.324Z,41.60
2018-07-15T22:41:32.022Z,42.00
2018-07-15T22:43:59.612Z,41.80
2018-07-15T22:46:27.310Z,42.00
2018-07-15T22:48:54.907Z,42.20
2018-07-15T22:51:22.701Z,42.40
2018-07-15T22:53:50.365Z,42.40
2018-07-15T22:56:17.962Z,42.60
2018-07-15T22:58:45.584Z,42.60
2018-07-15T23:01:13.249Z,42.70
2018-07-15T23:03:40.906Z,42.70
2018-07-15T23:06:16.866Z,43.10
2018-07-15T23:08:44.453Z,42.70
2018-07-15T23:11:12.021Z,42.60
2018-07-15T23:13:39.586Z,42.80
2018-07-15T23:16:07.372Z,42.80
2018-07-15T23:18:35.010Z,43.20
2018-07-15T23:21:02.637Z,43.50
2018-07-15T23:23:30.324Z,43.60
2018-07-15T23:25:58.046Z,44.00
2018-07-15T23:28:25.692Z,44.10
2018-07-15T23:30:53.301Z,44.00
2018-07-15T23:33:21.163Z,44.10
2018-07-15T23:35:48.803Z,44.50
2018-07-15T23:38:16.400Z,44.90
2018-07-15T23:40:44.026Z,45.10
2018-07-15T23:43:11.612Z,45.40
2018-07-15T23:45:39.231Z,45.60
2018-07-15T23:48:06.863Z,45.50
2018-07-15T23:50:34.498Z,45.90
2018-07-15T23:53:02.078Z,45.90
2018-07-15T23:55:29.859Z,46.40
2018-07-15T23:57:57.454Z,47.00
